Tindal Airport
YPTN : rendu visible

Aérodrome :











RETROUVEZ-NOUS SUR...

 
LOGIN :

S'inscrire | Disclaimer

   EN    FR    IT 

 









Légende :    VFR   VFR Marginal   IFR   IFR Intensif   IFR Très Intensif
Visi : 
Plafond : 
>= 8 km
>= 3000ft
5 à 8 km
1000 à 3000 ft
1500m à 5 km
500 à 1000 ft
800 à 1500m
200 à 500 ft
< 800m
< 200 ft
Symboles :   Orages  Brouillard  Fortes neiges  Fortes précipitations  Vent > 20 kt






- Altitude de l'aérodrome : 443 ft
- Code IATA : KTR


YPTN - Tindal

DERNIER METAR :
  • 070400Z AUTO 09009KT 9999 // NCD 32/13 Q1011

METARs EXPIRÉS :
  • 070330Z AUTO 07013KT 9999 // SCT056 31/13 Q1012 RF00.0/000.0
  • 070300Z AUTO 10012KT 9999 // SCT058 30/13 Q1013
  • 070230Z AUTO 09010KT 9999 // NCD 31/13 Q1013 RF00.0/000.0
  • 070200Z AUTO 08012KT 9999 // NCD 30/12 Q1014
  • 070130Z AUTO 10012KT 9999 // NCD 29/12 Q1014 RF00.0/000.0
  • 070100Z AUTO 09010KT 9999 // NCD 28/13 Q1014

TAF TAF YPTN
Valide du 07 à 00h jusqu'au 08 à 00h UTC


062313Z 0700/0800 10010KT CAVOK
FIR YBBB / Océanie



MET'MAP, la Météo Aéronautique d'un coup d'oeil ! - Copyright ORBIFLY Décembre 2007 - Disclaimer

ORBIFLY MET'MAP TEAM :

Programmation & Développement : Alexandra Zaïnal
Sur une idée originale de : Baudouin d'Aumeries
Assistance à la programmation : Marc-Olivier Méhu
Soutien technique & logistique : Manuel Goepfert

Contact : metmap@orbifly.com




SOURCES & CREDITS :

   NOAA       Earth
Advisory